Meteo Giornale » Osservazioni meteo Italia » Palermo-Punta Raisi

ore: 15:50 - Osservazioni Meteo Palermo-Punta Raisi
Lat. 38° 11' N Lon. 13° 6' E Alt. 21 metri s.l.m.

poco_nuvoloso Europe/Rome

14 °C

Poco Nuvoloso

Temp. 24 Ore

5 °C

14 °C

Est/Nord-Est

22.2 Km/h

Dew point 6 °C

Umidità 58 %

Visibilità  10 Km

Il sole sorge alle ore 06:52

Il sole tramonta alle ore 17:50

Data e Ora Cielo e Fenomeni T °C DP °C Um. % Pres. hPa Vis. km Vento km/h
Oggi h: 15:50 poco_nuvoloso Poco Nuvoloso 14 6 58 1024 10 E/NE 22.2
Oggi h: 15:20 sereno Sereno 13 6 62 1024 10 E/NE 22.2
Oggi h: 14:50 sereno Sereno 13 6 62 1025 10 NE 20.3
Oggi h: 14:20 sereno Sereno 13 6 62 1025 10 NE 18.5
Oggi h: 13:50 sereno Sereno 13 6 62 1025 10 NE 14.8
Oggi h: 13:20 sereno Sereno 13 6 62 1026 10 N/NE 9.3
Oggi h: 12:50 sereno Sereno 13 5 58 1026 10 N/NO 7.4
Oggi h: 12:20 sereno Sereno 13 5 58 1026 10 O/NO 9.3
Oggi h: 11:50 sereno Sereno 12 6 66 1027 10 O 11.1
Oggi h: 11:20 sereno Sereno 12 6 66 1027 10 O 11.1
Oggi h: 10:50 sereno Sereno 12 5 62 1027 10 O/SO 13
Oggi h: 10:20 sereno Sereno 12 6 66 1027 10 SO 13
Oggi h: 09:50 sereno Sereno 12 5 62 1027 10 SO 13
Oggi h: 09:20 sereno Sereno 11 5 66 1027 10 N 3.7
Oggi h: 08:50 sereno Sereno 9 6 81 1027 10 N 5.5
Oggi h: 08:20 sereno Sereno 6 3 81 1027 10 N 5.5
Oggi h: 07:50 sereno Sereno 5 2 80 1027 10 S/SO 7.4
Oggi h: 07:20 sereno Sereno 6 3 81 1027 10 N 3.7
Oggi h: 06:50 sereno Sereno 5 3 86 1027 10 S 7.4
Oggi h: 06:20 sereno Sereno 6 3 81 1027 10 S 9.3
Oggi h: 05:50 sereno Sereno 7 3 75 1027 0 N 5.5
Oggi h: 05:20 sereno Sereno 6 2 75 1027 10 S 7.4
Oggi h: 04:50 sereno Sereno 7 3 75 1027 10 N 5.5
Oggi h: 04:20 sereno Sereno 5 3 86 1027 10 N 5.5
Oggi h: 03:50 sereno Sereno 8 4 75 1027 10 N 3.7
Oggi h: 03:20 sereno Sereno 8 4 75 1027 10 N 1.8
Oggi h: 02:50 sereno Sereno 8 5 81 1027 10 N 3.7
Oggi h: 02:20 sereno Sereno 7 3 75 1027 10 S/SE 7.4
Oggi h: 01:50 sereno Sereno 8 3 70 1027 10 N 3.7
Oggi h: 01:20 sereno Sereno 6 3 81 1027 10 S/SE 7.4
Oggi h: 00:50 sereno Sereno 8 4 75 1028 10 SE 7.4
Oggi h: 00:20 sereno Sereno 7 3 75 1028 10 N 5.5
Ieri h: 23:50 sereno Sereno 7 3 75 1028 10 N 3.7
Ieri h: 23:20 sereno Sereno 9 4 70 1028 10 N 3.7
Ieri h: 22:50 sereno Sereno 9 4 70 1028 10 N 5.5
Ieri h: 22:20 sereno Sereno 8 3 70 1028 10 N 3.7
Ieri h: 21:50 sereno Sereno 8 3 70 1028 10 N 5.5
Ieri h: 21:20 sereno Sereno 10 4 66 1028 10 E 7.4
Ieri h: 20:50 sereno Sereno 10 3 61 1028 10 E 7.4
Ieri h: 20:20 sereno Sereno 11 5 66 1028 10 E 20.3
Ieri h: 19:50 sereno Sereno 11 4 61 1028 10 E 20.3
Ieri h: 19:20 sereno Sereno 11 5 66 1028 10 E 20.3
Ieri h: 18:50 sereno Sereno 11 5 66 1028 10 E/NE 20.3
Ieri h: 18:20 sereno Sereno 11 6 71 1028 10 E/NE 20.3
Ieri h: 17:50 sereno Sereno 11 6 71 1028 10 E/NE 18.5
Ieri h: 17:20 sereno Sereno 12 6 66 1028 10 E/NE 22.2
Ieri h: 16:50 sereno Sereno 13 6 62 1028 10 E/NE 22.2
Ieri h: 16:20 sereno Sereno 13 6 62 1028 10 NE 22.2
Ieri h: 15:50 sereno Sereno 13 6 62 1028 10 NE 22.2